Airfield :
LOGIN :

Register | Disclaimer

   EN    FR    IT 

 










Legend :    VFR   Marginal VFR   IFR   Intensive IFR   Very Intensive IFR
Visi :
Ceiling :
>= 8 km
>= 3000ft
5 to 8 km
1000 to 3000 ft
1500m to 5 km
500 to 1000 ft
800 to 1500m
200 to 500 ft
< 800m
< 200 ft
Symbols :   Thunderstorms  Fog  Heavy snow  Heavy precipitations  Wind > 20 kt
SIGMETs :     Misc.  Thunderstorms  Icing  Turbulence  Mountain Waves  Volcanic Ashes






- Airport Elevation : 1325 ft
- IATA code : EBU


LFMH - St-Etienne Boutheon

CURRENT METAR :
  • 141830Z AUTO VRB02KT 2000 -SN BR SCT003 BKN010 OVC014 00/M00 Q0997 TEMPO 0800 SN OVC003

EXPIRED METARs :
  • 141800Z AUTO 00000KT 1900 -SN BR BKN006 OVC012 00/M00 Q0997 TEMPO 0800 SN OVC003
  • 141730Z AUTO 19002KT 3200 -SN BR OVC015 00/00 Q0997 TEMPO 0800 SN OVC003
  • 141700Z AUTO 18002KT 5000 -SN BR FEW009 OVC016 01/00 Q0997 TEMPO 0800 SN OVC003
  • 141630Z AUTO VRB02KT 7000 -SN FEW004 SCT009 BKN014 01/00 Q0997 TEMPO 0800 SN OVC003
  • 141600Z AUTO 16002KT 6000 -SN FEW008 OVC018 01/00 Q0997 TEMPO 0800 SN OVC003

TAF TAF LFMH
Valid from the 14 at 15:00 until the 15 at 15:00 UTC


141400Z 1415/1515 16005KT 8000 OVC020
TEMPO 1415/1506 3000 -SN OVC007
PROB40
TEMPO 1416/1506 0800 SN OVC003
PROB30
TEMPO 1506/1509 0800 FG VV///
ATIS : +33 4 77 36 17 51



MET'MAP, your aeronautical weather chart ! - Copyright ORBIFLY December 2007 - Disclaimer

ORBIFLY MET'MAP TEAM :

Programming & Development : Alexandra Zaïnal
Concept & Development : Baudouin d'Aumeries
Co-Development & Prog : Marc-Olivier Méhu
Technical & hardware support : Manuel Goepfert

Contact : metmap@orbifly.com




SOURCES & CREDITS :

   NOAA